Aérodrome :
LOGIN :

S'inscrire | Disclaimer

   EN    FR    IT 

 










Légende :    VFR   VFR Marginal   IFR   IFR Intensif   IFR Très Intensif
Visi : 
Plafond : 
>= 8 km
>= 3000ft
5 à 8 km
1000 à 3000 ft
1500m à 5 km
500 à 1000 ft
800 à 1500m
200 à 500 ft
< 800m
< 200 ft
Symboles :   Orages  Brouillard  Fortes neiges  Fortes précipitations  Vent > 20 kt
SIGMETs :   Divers  Orages  Givrage  Turbulence  Onde Orograph.  Cendres Volcan.







- Altitude de l'aérodrome : 126 ft
- Code IATA : TIA


LATI - Rinas Mother Teresa Arpt - Tirana

DERNIER METAR :
  • 150750Z 15013KT 9999 RA SCT025 OVC055 12/10 Q1012 NOSIG

METARs EXPIRÉS :
  • 150720Z 17007KT 130V210 9999 -RA SCT025 OVC057 12/10 Q1011 RERA NOSIG
  • 150650Z 12008KT 9999 RA FEW025CB BKN040 OVC070 12/09 Q1010 NOSIG
  • 150620Z 17009KT 140V200 9999 -DZ FEW025CB BKN060 OVC070 13/09 Q1010 NOSIG
  • 150550Z VRB02KT 9999 FEW025CB BKN062 OVC085 09/07 Q1010 NOSIG
  • 150520Z 33003KT 9999 SCT078 BKN098 08/07 Q1009 NOSIG

TAF TAF LATI
Valide du 15 à 06h jusqu'au 16 à 06h UTC


150500Z 1506/1606 VRB05KT 9999 -RA SCT060 BKN100
BECMG 1510/1512 20012KT 5000 RA SCT025 OVC050
PROB40
TEMPO 1517/1606 34014KT 3000 TSRA SCT020CB
Pas de NOTAMs connus pour ce terrain.
1 SIGMET publié pour la FIR Tirana (LAAA) :
 
Orages noyés dans la masse
LAAA SIGMET 1 VALID 150545/150800 LATI
LAAA TIRANA FIR EMBD TS OBS S OF N4040 AND W OF E01940 TOP FL320 MOV ENE NC=



MET'MAP, la Météo Aéronautique d'un coup d'oeil ! - Copyright ORBIFLY Décembre 2007 - Disclaimer

ORBIFLY MET'MAP TEAM :

Programmation & Développement : Alexandra Zaïnal
Conception & Développement : Baudouin d'Aumeries
Co-Programmation & Développement : Marc-Olivier Méhu
Soutien technique & logistique : Manuel Goepfert

Contact : metmap@orbifly.com




SOURCES & CREDITS :

   NOAA